KEDE/EDE METAR and TAF weather

Enter ICAO airport designator
Station Type Date Time Source
KEDE METAR 2019/04/26 04:20 UTC NOAA

KEDE 260420Z AUTO 21007KT 10SM CLR 23/18 A2987 RMK AO2 T02310180


Station Type Date Time Source
KEDE Decoded METAR 2019/04/26 04:20 UTC NOAA

Edenton, Northeastern Regional Airport, NC, United States (KEDE) 36-01-40N 076-34-02W
Apr 26, 2019 - 12:20 AM EDT / 2019.04.26 0420 UTC
Wind: from the SSW (210 degrees) at 8 MPH (7 KT):0
Visibility: 10 mile(s):0
Sky conditions: clear
Temperature: 73.6 F (23.1 C)
Dew Point: 64.4 F (18.0 C)
Relative Humidity: 73%
Pressure (altimeter): 29.87 in. Hg (1011 hPa)
ob: KEDE 260420Z AUTO 21007KT 10SM CLR 23/18 A2987 RMK AO2 T02310180
cycle: 4

Station Type Date Time Source
KEDE TAF UTC NOAA

Error!

Example: see airport list